createdAt,value
2018-07-16T00:01:53.655Z,17.07
2018-07-16T00:04:23.300Z,17.43
2018-07-16T00:06:52.838Z,16.70
2018-07-16T00:09:22.403Z,17.07
2018-07-16T00:11:51.978Z,15.10
2018-07-16T00:14:21.644Z,15.70
2018-07-16T00:16:51.217Z,16.60
2018-07-16T00:19:20.809Z,15.17
2018-07-16T00:21:50.435Z,14.80
2018-07-16T00:24:20.006Z,14.10
2018-07-16T00:26:49.587Z,13.47
2018-07-16T00:29:19.154Z,14.37
2018-07-16T00:31:48.950Z,13.70
2018-07-16T00:34:18.579Z,13.60
2018-07-16T00:36:48.214Z,17.50
2018-07-16T00:39:17.795Z,16.00
2018-07-16T00:41:47.397Z,14.60
2018-07-16T00:44:17.036Z,14.07
2018-07-16T00:46:46.560Z,14.63
2018-07-16T00:49:16.215Z,14.73
2018-07-16T00:51:45.798Z,13.83
2018-07-16T00:54:15.414Z,13.80
2018-07-16T00:56:51.627Z,14.63
2018-07-16T00:59:21.233Z,15.03
2018-07-16T01:01:50.777Z,13.00
2018-07-16T01:04:20.353Z,13.77
2018-07-16T01:06:49.893Z,14.07
2018-07-16T01:09:19.437Z,15.30
2018-07-16T01:11:49.021Z,14.87
2018-07-16T01:14:18.609Z,13.80
2018-07-16T01:16:48.220Z,14.93
2018-07-16T01:19:17.763Z,14.13
2018-07-16T01:21:47.341Z,14.80
2018-07-16T01:24:16.920Z,13.80
2018-07-16T01:26:46.470Z,14.47
2018-07-16T01:29:16.076Z,15.33
2018-07-16T01:31:45.607Z,13.83
2018-07-16T01:34:15.158Z,13.60
2018-07-16T01:36:44.751Z,14.97
2018-07-16T01:39:14.286Z,14.77
2018-07-16T01:41:43.954Z,15.20
2018-07-16T01:44:13.510Z,13.53
2018-07-16T01:46:43.094Z,15.20
2018-07-16T01:49:12.744Z,14.63
2018-07-16T01:51:42.268Z,13.30
2018-07-16T01:54:11.880Z,13.67
2018-07-16T01:56:41.448Z,15.03
2018-07-16T01:59:11.060Z,13.83
2018-07-16T02:01:40.638Z,17.00
2018-07-16T02:04:10.314Z,15.37
2018-07-16T02:06:39.956Z,15.37
2018-07-16T02:09:09.599Z,15.20
2018-07-16T02:11:39.203Z,14.83
2018-07-16T02:14:08.813Z,14.67
2018-07-16T02:16:38.369Z,15.07
2018-07-16T02:19:07.964Z,14.07
2018-07-16T02:21:37.554Z,15.67
2018-07-16T02:24:07.165Z,12.70
2018-07-16T02:26:36.741Z,13.70
2018-07-16T02:29:06.406Z,14.20
2018-07-16T02:31:35.960Z,13.00
2018-07-16T02:34:05.672Z,13.53
2018-07-16T02:36:35.260Z,13.50
2018-07-16T02:39:05.166Z,12.20
2018-07-16T02:41:34.803Z,12.20
2018-07-16T02:44:04.406Z,11.80
2018-07-16T02:46:34.021Z,13.10
2018-07-16T02:49:03.615Z,11.83
2018-07-16T02:51:33.265Z,11.63
2018-07-16T02:54:02.840Z,12.10
2018-07-16T02:56:32.632Z,10.87
2018-07-16T02:59:02.095Z,10.23
2018-07-16T03:01:31.667Z,10.17
2018-07-16T03:04:01.255Z,12.40
2018-07-16T03:06:30.871Z,13.60
2018-07-16T03:09:00.434Z,12.77
2018-07-16T03:11:29.996Z,13.60
2018-07-16T03:13:59.540Z,11.27
2018-07-16T03:16:29.139Z,11.20
2018-07-16T03:18:58.684Z,12.00
2018-07-16T03:21:28.258Z,9.70
2018-07-16T03:23:57.849Z,9.83
2018-07-16T03:26:27.414Z,9.80
2018-07-16T03:28:57.225Z,9.40
2018-07-16T03:31:26.793Z,9.30
2018-07-16T03:33:56.365Z,9.40
2018-07-16T03:36:25.937Z,9.17
2018-07-16T03:38:55.498Z,8.63
2018-07-16T03:41:25.084Z,8.63
2018-07-16T03:43:54.685Z,7.93
2018-07-16T03:46:24.276Z,7.30
2018-07-16T03:48:53.843Z,8.60
2018-07-16T03:51:23.558Z,7.00
2018-07-16T03:53:53.166Z,6.70
2018-07-16T03:56:22.757Z,6.60
2018-07-16T03:58:52.295Z,7.63
2018-07-16T04:01:22.178Z,7.60
2018-07-16T04:03:51.800Z,6.20
2018-07-16T04:06:21.347Z,6.10
2018-07-16T04:08:50.991Z,4.87
2018-07-16T04:11:20.587Z,3.40
2018-07-16T04:13:50.147Z,3.20
2018-07-16T04:16:19.760Z,3.13
2018-07-16T04:18:49.319Z,3.33
2018-07-16T04:21:18.890Z,3.60
2018-07-16T04:23:48.441Z,4.50
2018-07-16T04:26:18.001Z,3.93
2018-07-16T04:28:47.610Z,4.00
2018-07-16T04:31:17.162Z,3.67
2018-07-16T04:33:46.700Z,3.60
2018-07-16T04:36:16.357Z,4.07
2018-07-16T04:38:45.923Z,3.53
2018-07-16T04:41:15.505Z,3.67
2018-07-16T04:43:45.081Z,3.50
2018-07-16T04:46:14.674Z,3.70
2018-07-16T04:48:44.218Z,3.83
2018-07-16T04:51:13.767Z,4.20
2018-07-16T04:53:43.414Z,5.07
2018-07-16T04:56:13.050Z,5.17
2018-07-16T04:58:42.608Z,5.37
2018-07-16T05:01:12.225Z,5.50
2018-07-16T05:03:41.751Z,7.20
2018-07-16T05:06:11.297Z,6.50
2018-07-16T05:08:40.862Z,6.00
2018-07-16T05:11:10.439Z,6.40
2018-07-16T05:13:40.006Z,6.30
2018-07-16T05:16:09.638Z,6.23
2018-07-16T05:18:39.213Z,7.37
2018-07-16T05:21:08.794Z,5.73
2018-07-16T05:23:38.435Z,7.33
2018-07-16T05:26:07.995Z,7.53
2018-07-16T05:28:37.550Z,7.43
2018-07-16T05:31:07.161Z,7.87
2018-07-16T05:33:36.714Z,7.00
2018-07-16T05:36:06.353Z,7.40
2018-07-16T05:38:35.898Z,8.07
2018-07-16T05:41:05.497Z,8.00
2018-07-16T05:43:35.124Z,9.17
2018-07-16T05:46:04.712Z,9.27
2018-07-16T05:48:34.297Z,9.77
2018-07-16T05:51:03.989Z,11.03
2018-07-16T05:53:33.578Z,10.70
2018-07-16T05:56:03.207Z,10.40
2018-07-16T05:58:32.804Z,12.17
2018-07-16T06:01:02.396Z,11.50
2018-07-16T06:03:31.980Z,14.47
2018-07-16T06:06:01.719Z,14.90
2018-07-16T06:08:31.364Z,14.63
2018-07-16T06:11:01.006Z,14.57
2018-07-16T06:13:30.583Z,15.20
2018-07-16T06:16:00.154Z,14.67
2018-07-16T06:18:29.742Z,15.77
2018-07-16T06:20:59.319Z,16.00
2018-07-16T06:23:28.854Z,18.50
2018-07-16T06:25:58.441Z,17.87
2018-07-16T06:28:28.030Z,17.00
2018-07-16T06:30:57.611Z,19.80
2018-07-16T06:33:27.184Z,18.33
2018-07-16T06:35:56.733Z,19.07
2018-07-16T06:38:26.299Z,17.13
2018-07-16T06:40:56.141Z,17.93
2018-07-16T06:43:25.586Z,17.30
2018-07-16T06:45:55.205Z,17.90
2018-07-16T06:48:24.770Z,18.10
2018-07-16T06:50:54.428Z,18.73
2018-07-16T06:53:24.077Z,17.40
2018-07-16T06:55:53.613Z,17.27
2018-07-16T06:58:23.201Z,15.33
2018-07-16T07:00:52.722Z,15.00
2018-07-16T07:03:22.345Z,14.70
2018-07-16T07:05:51.978Z,15.03
2018-07-16T07:08:21.580Z,16.23
2018-07-16T07:10:51.233Z,16.50
2018-07-16T07:13:20.910Z,15.93
2018-07-16T07:15:50.913Z,14.73
2018-07-16T07:18:20.895Z,17.50
2018-07-16T07:20:50.971Z,17.10
2018-07-16T07:23:21.052Z,15.40
2018-07-16T07:25:51.010Z,15.60
2018-07-16T07:28:21.017Z,15.27
2018-07-16T07:30:51.232Z,14.43
2018-07-16T07:33:20.917Z,15.67
2018-07-16T07:35:50.842Z,15.73
2018-07-16T07:38:20.383Z,16.03
2018-07-16T07:40:49.996Z,14.17
2018-07-16T07:43:19.642Z,14.90
2018-07-16T07:45:49.237Z,15.87
2018-07-16T07:48:18.840Z,14.83
2018-07-16T07:50:48.498Z,13.87
2018-07-16T07:53:18.061Z,14.20
2018-07-16T07:55:47.696Z,13.77
2018-07-16T07:58:17.275Z,13.80
2018-07-16T08:00:46.932Z,14.43
2018-07-16T08:03:16.577Z,13.60
2018-07-16T08:05:51.399Z,15.50
2018-07-16T08:08:20.375Z,15.23
2018-07-16T08:10:49.982Z,13.10
2018-07-16T08:13:19.046Z,13.27
2018-07-16T08:15:48.622Z,13.57
2018-07-16T08:18:18.276Z,14.30
2018-07-16T08:20:47.992Z,12.30
2018-07-16T08:23:17.849Z,14.63
2018-07-16T08:25:47.474Z,13.47
2018-07-16T08:28:17.201Z,14.33
2018-07-16T08:30:46.765Z,14.00
2018-07-16T08:33:16.516Z,12.57
2018-07-16T08:35:46.102Z,13.50
2018-07-16T08:38:15.791Z,13.90
2018-07-16T08:40:45.794Z,13.73
2018-07-16T08:43:15.422Z,12.67
2018-07-16T08:45:45.054Z,13.60
2018-07-16T08:48:14.771Z,14.90
2018-07-16T08:50:44.375Z,13.80
2018-07-16T08:53:13.974Z,12.97
2018-07-16T08:55:52.213Z,13.63
2018-07-16T08:58:21.787Z,15.03
2018-07-16T09:00:51.343Z,14.40
2018-07-16T09:03:20.898Z,14.13
2018-07-16T09:05:54.575Z,12.83
2018-07-16T09:08:24.152Z,13.10
2018-07-16T09:10:53.776Z,13.00
2018-07-16T09:13:23.446Z,12.50
2018-07-16T09:15:52.982Z,13.20
2018-07-16T09:18:22.646Z,13.13
2018-07-16T09:20:52.254Z,13.60
2018-07-16T09:23:21.827Z,14.60
2018-07-16T09:25:51.503Z,12.97
2018-07-16T09:28:21.093Z,13.20
2018-07-16T09:30:50.807Z,13.37
2018-07-16T09:33:20.408Z,14.30
2018-07-16T09:35:50.298Z,13.80
2018-07-16T09:38:19.992Z,13.83
2018-07-16T09:40:49.561Z,13.00
2018-07-16T09:43:19.136Z,14.30
2018-07-16T09:45:48.709Z,13.53
2018-07-16T09:48:17.728Z,13.00
2018-07-16T09:50:47.331Z,13.50
2018-07-16T09:53:16.882Z,12.80
2018-07-16T09:55:46.503Z,13.60
2018-07-16T09:58:16.118Z,13.30
2018-07-16T10:00:50.813Z,13.63
2018-07-16T10:03:20.403Z,15.20
2018-07-16T10:05:49.970Z,12.83
2018-07-16T10:08:19.574Z,13.53
2018-07-16T10:10:49.127Z,13.93
2018-07-16T10:13:18.709Z,13.40
2018-07-16T10:15:48.260Z,14.53
2018-07-16T10:18:23.721Z,13.83
2018-07-16T10:20:53.394Z,13.87
2018-07-16T10:23:23.003Z,13.23
2018-07-16T10:25:53.454Z,13.00
2018-07-16T10:28:24.979Z,12.90
2018-07-16T10:30:54.557Z,13.50
2018-07-16T10:33:42.611Z,13.73
2018-07-16T10:36:12.321Z,12.60
2018-07-16T10:38:41.889Z,13.37
2018-07-16T10:41:11.436Z,12.40
2018-07-16T10:43:41.019Z,13.70
2018-07-16T10:46:10.552Z,12.80
2018-07-16T10:48:40.140Z,14.00
2018-07-16T10:51:09.707Z,12.53
2018-07-16T10:53:39.270Z,13.87
2018-07-16T10:56:08.884Z,13.13
2018-07-16T10:58:38.458Z,11.90
2018-07-16T11:01:08.348Z,12.37
2018-07-16T11:03:37.921Z,12.80
2018-07-16T11:06:13.006Z,12.57
2018-07-16T11:08:42.036Z,12.10
2018-07-16T11:11:11.640Z,11.63
2018-07-16T11:13:41.236Z,12.10
2018-07-16T11:16:10.797Z,12.80
2018-07-16T11:18:40.392Z,11.37
2018-07-16T11:21:09.936Z,10.90
2018-07-16T11:23:39.560Z,11.70
2018-07-16T11:26:09.168Z,12.50
2018-07-16T11:28:38.751Z,12.30
2018-07-16T11:31:07.755Z,13.40
2018-07-16T11:33:37.384Z,12.73
2018-07-16T11:36:06.949Z,12.13
2018-07-16T11:38:36.523Z,13.00
2018-07-16T11:41:06.102Z,13.30
2018-07-16T11:43:35.805Z,13.67
2018-07-16T11:46:06.360Z,12.70
2018-07-16T11:48:35.928Z,12.07
2018-07-16T11:51:05.516Z,12.80
2018-07-16T11:53:35.043Z,13.07
2018-07-16T11:56:04.675Z,13.03
2018-07-16T11:58:36.605Z,12.97
2018-07-16T12:01:06.195Z,12.37
2018-07-16T12:03:35.809Z,14.40
2018-07-16T12:06:09.499Z,14.10
2018-07-16T12:08:39.054Z,14.07
2018-07-16T12:11:08.702Z,13.67
2018-07-16T12:13:38.303Z,13.73
2018-07-16T12:16:07.964Z,14.87
2018-07-16T12:18:37.895Z,13.40
2018-07-16T12:21:07.716Z,14.17
2018-07-16T12:23:37.297Z,13.37
2018-07-16T12:26:07.049Z,13.50
2018-07-16T12:28:36.830Z,14.30
2018-07-16T12:31:06.614Z,12.20
2018-07-16T12:33:36.193Z,13.63
2018-07-16T12:36:05.882Z,12.30
2018-07-16T12:38:35.444Z,14.17
2018-07-16T12:41:04.434Z,14.00
2018-07-16T12:43:33.980Z,12.80
2018-07-16T12:46:03.821Z,12.73
2018-07-16T12:48:33.486Z,12.37
2018-07-16T12:51:03.058Z,12.80
2018-07-16T12:53:32.640Z,12.87
2018-07-16T12:56:02.226Z,12.33
2018-07-16T12:58:31.814Z,12.40
2018-07-16T13:01:01.850Z,11.87
2018-07-16T13:03:31.545Z,11.87
2018-07-16T13:06:01.148Z,12.27
2018-07-16T13:08:30.770Z,12.07
2018-07-16T13:11:00.325Z,10.90
2018-07-16T13:13:44.382Z,9.80
2018-07-16T13:16:36.463Z,11.00
2018-07-16T13:19:06.110Z,9.37
2018-07-16T13:21:35.770Z,8.83
2018-07-16T13:24:05.377Z,8.83
2018-07-16T13:26:34.940Z,10.07
2018-07-16T13:29:04.528Z,9.93
2018-07-16T13:31:34.135Z,9.00
2018-07-16T13:34:03.734Z,10.10
2018-07-16T13:36:33.343Z,10.17
2018-07-16T13:39:02.909Z,10.13
2018-07-16T13:41:32.480Z,10.50
2018-07-16T13:44:02.074Z,11.30
2018-07-16T13:46:31.695Z,11.30
2018-07-16T13:49:07.761Z,11.33
2018-07-16T13:51:38.740Z,11.40
2018-07-16T13:54:08.597Z,12.23
2018-07-16T13:56:38.155Z,12.07
2018-07-16T13:59:07.925Z,12.27
2018-07-16T14:01:37.510Z,12.70
2018-07-16T14:04:07.127Z,13.40
2018-07-16T14:06:36.721Z,12.43
2018-07-16T14:09:08.398Z,13.67
2018-07-16T14:11:37.981Z,12.20
2018-07-16T14:14:07.755Z,11.30
2018-07-16T14:16:37.356Z,13.73
2018-07-16T14:19:07.011Z,14.70
2018-07-16T14:21:36.966Z,12.47
2018-07-16T14:24:06.505Z,11.70
2018-07-16T14:26:36.093Z,11.40
2018-07-16T14:29:05.685Z,13.27
2018-07-16T14:31:35.306Z,13.13
2018-07-16T14:34:04.902Z,12.63
2018-07-16T14:36:34.549Z,15.07
2018-07-16T14:39:04.387Z,13.00
2018-07-16T14:41:33.939Z,10.47
2018-07-16T14:44:05.039Z,3.90
2018-07-16T14:46:35.037Z,6.37
2018-07-16T14:49:04.559Z,4.50
2018-07-16T14:51:35.190Z,4.63
2018-07-16T14:54:04.809Z,3.97
2018-07-16T14:56:34.501Z,3.30
2018-07-16T14:59:04.078Z,4.00
2018-07-16T15:01:33.639Z,3.80
2018-07-16T15:04:03.231Z,4.23
2018-07-16T15:06:33.987Z,3.97
2018-07-16T15:09:05.148Z,4.47
2018-07-16T15:11:34.719Z,6.80
2018-07-16T15:14:04.469Z,8.70
2018-07-16T15:16:34.037Z,6.47
2018-07-16T15:19:03.726Z,6.97
2018-07-16T15:21:33.455Z,6.10
2018-07-16T15:24:02.955Z,6.20
2018-07-16T15:26:32.893Z,7.40
2018-07-16T15:29:02.779Z,6.93
2018-07-16T15:31:32.365Z,6.20
2018-07-16T15:34:01.897Z,5.33
2018-07-16T15:36:31.465Z,4.10
2018-07-16T15:39:01.023Z,3.70
2018-07-16T15:41:30.675Z,3.53
2018-07-16T15:44:00.300Z,4.40
2018-07-16T15:46:29.896Z,3.13
2018-07-16T15:48:59.471Z,5.03
2018-07-16T15:51:29.035Z,5.73
2018-07-16T15:53:58.630Z,5.20
2018-07-16T15:56:30.768Z,7.13
2018-07-16T15:59:03.158Z,4.77
2018-07-16T16:01:33.436Z,6.07
2018-07-16T16:04:03.077Z,5.90
2018-07-16T16:06:32.720Z,5.73
2018-07-16T16:09:02.399Z,6.10
2018-07-16T16:11:32.024Z,6.60
2018-07-16T16:14:01.566Z,7.20
2018-07-16T16:16:31.245Z,4.97
2018-07-16T16:19:00.818Z,5.80
2018-07-16T16:21:30.398Z,5.63
2018-07-16T16:24:00.078Z,6.37
2018-07-16T16:26:29.733Z,5.30
2018-07-16T16:29:02.315Z,6.60
2018-07-16T16:31:32.029Z,6.07
2018-07-16T16:34:01.593Z,5.37
2018-07-16T16:36:32.054Z,5.70
2018-07-16T16:39:01.613Z,5.63
2018-07-16T16:41:31.949Z,7.13
2018-07-16T16:44:01.501Z,7.10
2018-07-16T16:46:31.126Z,6.07
2018-07-16T16:49:00.713Z,6.10
2018-07-16T16:51:30.368Z,5.53
2018-07-16T16:53:59.991Z,6.60
2018-07-16T16:56:29.566Z,6.27
2018-07-16T16:58:59.170Z,6.80
2018-07-16T17:01:28.750Z,6.53
2018-07-16T17:03:58.372Z,5.20
2018-07-16T17:06:27.948Z,6.17
2018-07-16T17:09:19.906Z,5.90
2018-07-16T17:12:11.379Z,4.97
2018-07-16T17:14:50.714Z,6.03
2018-07-16T17:17:41.885Z,6.30
2018-07-16T17:20:11.474Z,5.90
2018-07-16T17:22:42.171Z,6.10
2018-07-16T17:25:11.750Z,7.73
2018-07-16T17:27:41.327Z,6.50
2018-07-16T17:30:11.626Z,7.07
2018-07-16T17:32:41.229Z,8.37
2018-07-16T17:35:10.851Z,6.43
2018-07-16T17:37:40.430Z,6.97
2018-07-16T17:40:10.045Z,7.50
2018-07-16T17:42:39.634Z,6.30
2018-07-16T17:45:09.644Z,5.80
2018-07-16T17:47:39.242Z,6.37
2018-07-16T17:50:08.807Z,6.83
2018-07-16T17:52:38.428Z,6.43
2018-07-16T17:55:08.031Z,5.97
2018-07-16T18:52:24.482Z,6.80
2018-07-16T18:55:14.541Z,5.73
2018-07-16T18:57:44.480Z,5.83
2018-07-16T19:00:14.794Z,5.60
2018-07-16T19:02:44.253Z,5.53
2018-07-16T19:05:14.590Z,7.20
2018-07-16T19:07:45.015Z,6.40
2018-07-16T19:10:15.358Z,5.70
2018-07-16T19:12:45.788Z,5.57
2018-07-16T19:15:26.856Z,6.60
2018-07-16T19:17:58.025Z,5.87
2018-07-16T19:20:28.632Z,5.23
2018-07-16T19:22:59.023Z,5.63
2018-07-16T19:25:29.363Z,6.87
2018-07-16T19:27:59.699Z,6.50
2018-07-16T19:30:30.047Z,7.07
2018-07-16T19:33:01.335Z,7.13
2018-07-16T19:35:31.853Z,6.60
2018-07-16T19:38:02.443Z,6.23
2018-07-16T19:40:32.802Z,6.90
2018-07-16T19:43:03.122Z,7.20
2018-07-16T19:45:33.707Z,7.13
2018-07-16T19:48:04.078Z,5.70
2018-07-16T19:50:34.487Z,5.77
2018-07-16T19:53:04.852Z,6.40
2018-07-16T19:55:35.232Z,6.10
2018-07-16T19:58:05.623Z,6.83
2018-07-16T20:00:36.077Z,6.23
2018-07-16T20:03:06.584Z,6.00
2018-07-16T20:05:37.238Z,6.83
2018-07-16T20:08:07.616Z,6.50
2018-07-16T20:10:38.007Z,5.23
2018-07-16T20:13:08.500Z,5.13
2018-07-16T20:15:39.073Z,6.87
2018-07-16T20:18:09.328Z,7.30
2018-07-16T20:20:49.792Z,5.97
2018-07-16T20:23:20.135Z,6.00
2018-07-16T20:25:51.505Z,5.97
2018-07-16T20:28:21.852Z,5.70
2018-07-16T20:30:52.206Z,5.90
2018-07-16T20:33:22.715Z,6.87
2018-07-16T20:35:53.032Z,5.07
2018-07-16T20:38:23.396Z,6.07
2018-07-16T20:40:53.788Z,5.70
2018-07-16T20:43:24.104Z,5.30
2018-07-16T20:45:54.450Z,6.03
2018-07-16T20:48:24.735Z,6.70
2018-07-16T20:50:54.872Z,6.20
2018-07-16T20:53:25.116Z,6.77
2018-07-16T20:55:55.184Z,6.53
2018-07-16T20:58:25.055Z,6.10
2018-07-16T21:00:54.951Z,6.17
2018-07-16T21:03:24.835Z,6.37
2018-07-16T21:05:54.462Z,5.80
2018-07-16T21:08:24.160Z,7.10
2018-07-16T21:10:53.762Z,6.50
2018-07-16T21:13:23.352Z,6.73
2018-07-16T21:15:52.945Z,9.80
2018-07-16T21:18:22.503Z,7.80
2018-07-16T21:20:52.075Z,7.27
2018-07-16T21:23:21.605Z,7.70
2018-07-16T21:25:51.175Z,7.70
2018-07-16T21:28:20.765Z,7.07
2018-07-16T21:30:50.374Z,6.90
2018-07-16T21:33:19.994Z,6.97
2018-07-16T21:35:49.594Z,6.67
2018-07-16T21:38:19.110Z,6.20
2018-07-16T21:40:48.755Z,7.30
2018-07-16T21:43:18.409Z,6.80
2018-07-16T21:45:47.993Z,6.13
2018-07-16T21:48:17.637Z,6.70
2018-07-16T21:50:47.509Z,5.80
2018-07-16T21:53:17.109Z,6.20
2018-07-16T21:55:46.667Z,6.90
2018-07-16T21:58:16.282Z,6.80
2018-07-16T22:00:46.162Z,6.90
2018-07-16T22:03:15.768Z,7.13
2018-07-16T22:05:45.339Z,7.07
2018-07-16T22:08:14.928Z,6.93
2018-07-16T22:10:44.472Z,6.03
2018-07-16T22:13:14.088Z,6.33
2018-07-16T22:15:43.680Z,5.80
2018-07-16T22:18:13.254Z,6.73
2018-07-16T22:20:42.858Z,6.47
2018-07-16T22:23:12.504Z,7.07
2018-07-16T22:25:42.087Z,6.80
2018-07-16T22:28:11.652Z,6.40
2018-07-16T22:30:41.238Z,6.87
2018-07-16T22:33:10.933Z,6.30
2018-07-16T22:35:40.541Z,5.40
2018-07-16T22:38:10.098Z,6.00
2018-07-16T22:40:39.640Z,6.40
2018-07-16T22:43:09.266Z,6.87
2018-07-16T22:45:38.843Z,6.13
2018-07-16T22:48:08.416Z,7.03
2018-07-16T22:50:38.113Z,6.10
2018-07-16T22:53:07.721Z,6.70
2018-07-16T22:55:37.316Z,6.13
2018-07-16T22:58:06.972Z,6.30
2018-07-16T23:00:36.584Z,5.97
2018-07-16T23:03:06.163Z,5.70
2018-07-16T23:05:35.774Z,6.67
2018-07-16T23:08:05.364Z,7.07
2018-07-16T23:10:34.911Z,7.87
2018-07-16T23:13:03.913Z,7.70
2018-07-16T23:15:33.537Z,8.60
2018-07-16T23:18:03.172Z,9.60
2018-07-16T23:20:32.721Z,10.10
2018-07-16T23:23:02.272Z,10.50
2018-07-16T23:25:31.828Z,12.00
2018-07-16T23:28:01.426Z,10.67
2018-07-16T23:30:31.034Z,11.37
2018-07-16T23:33:00.588Z,11.53
2018-07-16T23:35:30.162Z,12.67
2018-07-16T23:37:59.759Z,11.80
2018-07-16T23:40:29.372Z,11.20
2018-07-16T23:42:58.933Z,10.27
2018-07-16T23:45:28.493Z,10.13
2018-07-16T23:47:58.132Z,11.00
2018-07-16T23:50:27.730Z,11.43
2018-07-16T23:52:57.303Z,12.80
2018-07-16T23:55:26.873Z,11.37
2018-07-16T23:57:56.447Z,12.10
